sensor_id;sensor_type;location;lat;lon;timestamp;pressure;altitude;pressure_sealevel;temperature;humidity
62791;BME280;48830;53.426;10.300;2023-03-12T00:01:17;101011.44;;;2.47;100.00
62791;BME280;48830;53.426;10.300;2023-03-12T00:03:43;101013.59;;;2.39;100.00
62791;BME280;48830;53.426;10.300;2023-03-12T00:06:09;101022.81;;;2.37;100.00
62791;BME280;48830;53.426;10.300;2023-03-12T00:08:35;101022.47;;;2.31;100.00
62791;BME280;48830;53.426;10.300;2023-03-12T00:11:08;101024.78;;;2.26;100.00
62791;BME280;48830;53.426;10.300;2023-03-12T00:13:34;101028.88;;;2.24;100.00
62791;BME280;48830;53.426;10.300;2023-03-12T00:16:06;101027.16;;;2.23;100.00
62791;BME280;48830;53.426;10.300;2023-03-12T00:18:31;101028.50;;;2.17;100.00
62791;BME280;48830;53.426;10.300;2023-03-12T00:20:57;101023.31;;;2.15;100.00
62791;BME280;48830;53.426;10.300;2023-03-12T00:23:22;101024.06;;;2.13;100.00
62791;BME280;48830;53.426;10.300;2023-03-12T00:25:48;101026.09;;;2.03;100.00
62791;BME280;48830;53.426;10.300;2023-03-12T00:28:13;101022.06;;;2.07;100.00
62791;BME280;48830;53.426;10.300;2023-03-12T00:30:39;101022.88;;;2.06;100.00
62791;BME280;48830;53.426;10.300;2023-03-12T00:33:05;101024.28;;;2.01;100.00
62791;BME280;48830;53.426;10.300;2023-03-12T00:35:30;101023.41;;;2.00;100.00
62791;BME280;48830;53.426;10.300;2023-03-12T00:37:56;101025.84;;;1.99;100.00
62791;BME280;48830;53.426;10.300;2023-03-12T00:40:22;101026.50;;;1.95;100.00
62791;BME280;48830;53.426;10.300;2023-03-12T00:42:47;101023.63;;;1.89;100.00
62791;BME280;48830;53.426;10.300;2023-03-12T00:45:13;101027.31;;;1.79;100.00
62791;BME280;48830;53.426;10.300;2023-03-12T00:47:38;101028.75;;;1.74;100.00
62791;BME280;48830;53.426;10.300;2023-03-12T00:50:04;101024.34;;;1.71;100.00
62791;BME280;48830;53.426;10.300;2023-03-12T00:52:30;101021.81;;;1.71;100.00
62791;BME280;48830;53.426;10.300;2023-03-12T00:54:55;101020.28;;;1.73;100.00
62791;BME280;48830;53.426;10.300;2023-03-12T00:57:23;101028.28;;;1.81;100.00
62791;BME280;48830;53.426;10.300;2023-03-12T00:59:49;101025.19;;;1.87;100.00
62791;BME280;48830;53.426;10.300;2023-03-12T01:02:14;101022.66;;;1.87;100.00
62791;BME280;48830;53.426;10.300;2023-03-12T01:04:40;101030.44;;;1.90;100.00
62791;BME280;48830;53.426;10.300;2023-03-12T01:07:05;101033.06;;;1.91;100.00
62791;BME280;48830;53.426;10.300;2023-03-12T01:09:31;101028.94;;;1.93;100.00
62791;BME280;48830;53.426;10.300;2023-03-12T01:11:56;101030.59;;;1.93;100.00
62791;BME280;48830;53.426;10.300;2023-03-12T01:14:22;101036.53;;;1.93;100.00
62791;BME280;48830;53.426;10.300;2023-03-12T01:16:48;101037.41;;;1.94;100.00
62791;BME280;48830;53.426;10.300;2023-03-12T01:19:14;101047.91;;;2.00;100.00
62791;BME280;48830;53.426;10.300;2023-03-12T01:21:39;101047.25;;;2.04;100.00
62791;BME280;48830;53.426;10.300;2023-03-12T01:24:05;101033.00;;;2.06;100.00
62791;BME280;48830;53.426;10.300;2023-03-12T01:26:30;101036.66;;;2.11;100.00
62791;BME280;48830;53.426;10.300;2023-03-12T01:28:56;101043.47;;;2.12;100.00
62791;BME280;48830;53.426;10.300;2023-03-12T01:31:21;101044.16;;;2.09;100.00
62791;BME280;48830;53.426;10.300;2023-03-12T01:33:49;101043.47;;;2.12;100.00
62791;BME280;48830;53.426;10.300;2023-03-12T01:36:21;101045.06;;;2.10;100.00
62791;BME280;48830;53.426;10.300;2023-03-12T01:38:50;101041.72;;;2.11;100.00
62791;BME280;48830;53.426;10.300;2023-03-12T01:41:15;101045.94;;;2.10;100.00
62791;BME280;48830;53.426;10.300;2023-03-12T01:43:41;101039.63;;;2.04;100.00
62791;BME280;48830;53.426;10.300;2023-03-12T01:52:19;101045.78;;;1.93;100.00
62791;BME280;48830;53.426;10.300;2023-03-12T01:54:38;101055.88;;;1.91;100.00
62791;BME280;48830;53.426;10.300;2023-03-12T01:57:09;101055.94;;;1.93;100.00
62791;BME280;48830;53.426;10.300;2023-03-12T01:59:38;101061.81;;;1.92;100.00
62791;BME280;48830;53.426;10.300;2023-03-12T02:02:07;101063.72;;;1.96;100.00
62791;BME280;48830;53.426;10.300;2023-03-12T02:04:34;101066.06;;;1.93;100.00
62791;BME280;48830;53.426;10.300;2023-03-12T02:07:09;101064.19;;;1.89;100.00
62791;BME280;48830;53.426;10.300;2023-03-12T02:09:39;101066.88;;;1.92;100.00
62791;BME280;48830;53.426;10.300;2023-03-12T02:12:06;101064.25;;;1.90;100.00
62791;BME280;48830;53.426;10.300;2023-03-12T02:14:32;101068.53;;;1.91;100.00
62791;BME280;48830;53.426;10.300;2023-03-12T02:16:58;101066.53;;;1.86;100.00
62791;BME280;48830;53.426;10.300;2023-03-12T02:22:03;101062.75;;;1.94;100.00
62791;BME280;48830;53.426;10.300;2023-03-12T02:27:21;101067.31;;;1.99;100.00
62791;BME280;48830;53.426;10.300;2023-03-12T02:29:47;101068.19;;;2.00;100.00
62791;BME280;48830;53.426;10.300;2023-03-12T02:32:21;101068.00;;;1.97;100.00
62791;BME280;48830;53.426;10.300;2023-03-12T02:34:49;101068.94;;;1.99;100.00
62791;BME280;48830;53.426;10.300;2023-03-12T02:37:15;101066.59;;;2.02;100.00
62791;BME280;48830;53.426;10.300;2023-03-12T02:39:43;101069.19;;;2.03;100.00
62791;BME280;48830;53.426;10.300;2023-03-12T02:42:10;101062.47;;;2.04;100.00
62791;BME280;48830;53.426;10.300;2023-03-12T02:44:36;101065.84;;;2.04;100.00
62791;BME280;48830;53.426;10.300;2023-03-12T02:47:03;101064.06;;;2.02;100.00
62791;BME280;48830;53.426;10.300;2023-03-12T02:49:31;101066.25;;;1.96;100.00
62791;BME280;48830;53.426;10.300;2023-03-12T02:51:59;101060.13;;;1.92;100.00
62791;BME280;48830;53.426;10.300;2023-03-12T02:54:25;101060.84;;;1.90;100.00
62791;BME280;48830;53.426;10.300;2023-03-12T02:56:51;101065.59;;;1.83;100.00
62791;BME280;48830;53.426;10.300;2023-03-12T02:59:18;101062.88;;;1.80;100.00
62791;BME280;48830;53.426;10.300;2023-03-12T03:01:51;101066.91;;;1.77;100.00
62791;BME280;48830;53.426;10.300;2023-03-12T03:04:17;101065.88;;;1.73;100.00
62791;BME280;48830;53.426;10.300;2023-03-12T03:06:43;101069.97;;;1.71;100.00
62791;BME280;48830;53.426;10.300;2023-03-12T03:09:09;101078.22;;;1.67;100.00
62791;BME280;48830;53.426;10.300;2023-03-12T03:11:34;101075.56;;;1.66;100.00
62791;BME280;48830;53.426;10.300;2023-03-12T03:14:02;101072.97;;;1.64;100.00
62791;BME280;48830;53.426;10.300;2023-03-12T03:16:28;101066.84;;;1.61;100.00
62791;BME280;48830;53.426;10.300;2023-03-12T03:18:54;101070.44;;;1.49;100.00
62791;BME280;48830;53.426;10.300;2023-03-12T03:21:20;101065.28;;;1.48;100.00
62791;BME280;48830;53.426;10.300;2023-03-12T03:23:48;101067.56;;;1.43;100.00
62791;BME280;48830;53.426;10.300;2023-03-12T03:26:15;101060.75;;;1.42;100.00
62791;BME280;48830;53.426;10.300;2023-03-12T03:28:41;101058.16;;;1.41;100.00
62791;BME280;48830;53.426;10.300;2023-03-12T03:31:08;101062.88;;;1.35;100.00
62791;BME280;48830;53.426;10.300;2023-03-12T03:33:37;101061.81;;;1.31;100.00
62791;BME280;48830;53.426;10.300;2023-03-12T03:36:05;101056.56;;;1.28;100.00
62791;BME280;48830;53.426;10.300;2023-03-12T03:38:34;101055.00;;;1.15;100.00
62791;BME280;48830;53.426;10.300;2023-03-12T03:41:01;101068.28;;;1.11;100.00
62791;BME280;48830;53.426;10.300;2023-03-12T03:43:27;101067.72;;;1.02;100.00
62791;BME280;48830;53.426;10.300;2023-03-12T03:46:00;101068.34;;;0.98;100.00
62791;BME280;48830;53.426;10.300;2023-03-12T03:48:28;101060.84;;;0.99;100.00
62791;BME280;48830;53.426;10.300;2023-03-12T03:50:54;101070.00;;;0.97;100.00
62791;BME280;48830;53.426;10.300;2023-03-12T03:53:19;101072.09;;;0.90;100.00
62791;BME280;48830;53.426;10.300;2023-03-12T03:55:46;101073.66;;;0.88;100.00
62791;BME280;48830;53.426;10.300;2023-03-12T03:58:12;101061.97;;;0.90;100.00
62791;BME280;48830;53.426;10.300;2023-03-12T04:00:38;101082.25;;;0.48;100.00
62791;BME280;48830;53.426;10.300;2023-03-12T04:03:04;101067.06;;;0.62;100.00
62791;BME280;48830;53.426;10.300;2023-03-12T04:05:30;101071.59;;;0.67;100.00
62791;BME280;48830;53.426;10.300;2023-03-12T04:07:56;101068.88;;;0.64;100.00
62791;BME280;48830;53.426;10.300;2023-03-12T04:10:28;101082.69;;;0.69;100.00
62791;BME280;48830;53.426;10.300;2023-03-12T04:12:54;101064.81;;;0.66;100.00
62791;BME280;48830;53.426;10.300;2023-03-12T04:15:20;101074.97;;;0.53;100.00
62791;BME280;48830;53.426;10.300;2023-03-12T04:17:47;101066.78;;;0.57;100.00
62791;BME280;48830;53.426;10.300;2023-03-12T04:20:13;101074.56;;;0.60;100.00
62791;BME280;48830;53.426;10.300;2023-03-12T04:22:40;101073.31;;;0.53;100.00
62791;BME280;48830;53.426;10.300;2023-03-12T04:25:06;101075.66;;;0.50;100.00
62791;BME280;48830;53.426;10.300;2023-03-12T04:27:33;101061.88;;;0.45;100.00
62791;BME280;48830;53.426;10.300;2023-03-12T04:29:59;101073.81;;;0.48;100.00
62791;BME280;48830;53.426;10.300;2023-03-12T04:32:24;101071.28;;;0.48;100.00
62791;BME280;48830;53.426;10.300;2023-03-12T04:34:51;101065.28;;;0.46;100.00
62791;BME280;48830;53.426;10.300;2023-03-12T04:37:16;101067.59;;;0.43;100.00
62791;BME280;48830;53.426;10.300;2023-03-12T04:39:43;101068.00;;;0.49;100.00
62791;BME280;48830;53.426;10.300;2023-03-12T04:42:09;101061.94;;;0.47;100.00
62791;BME280;48830;53.426;10.300;2023-03-12T04:44:36;101064.47;;;0.47;100.00
62791;BME280;48830;53.426;10.300;2023-03-12T04:47:03;101054.38;;;0.47;100.00
62791;BME280;48830;53.426;10.300;2023-03-12T04:49:29;101057.75;;;0.47;100.00
62791;BME280;48830;53.426;10.300;2023-03-12T04:51:55;101058.28;;;0.42;100.00
62791;BME280;48830;53.426;10.300;2023-03-12T04:54:21;101054.97;;;0.43;100.00
62791;BME280;48830;53.426;10.300;2023-03-12T04:56:50;101048.06;;;0.40;100.00
62791;BME280;48830;53.426;10.300;2023-03-12T04:59:19;101045.47;;;0.39;100.00
62791;BME280;48830;53.426;10.300;2023-03-12T05:01:45;101046.13;;;0.36;100.00
62791;BME280;48830;53.426;10.300;2023-03-12T05:04:16;101040.91;;;0.33;100.00
62791;BME280;48830;53.426;10.300;2023-03-12T05:06:42;101047.50;;;0.31;100.00
62791;BME280;48830;53.426;10.300;2023-03-12T05:09:08;101051.53;;;0.28;100.00
62791;BME280;48830;53.426;10.300;2023-03-12T05:11:33;101056.69;;;0.16;100.00
62791;BME280;48830;53.426;10.300;2023-03-12T05:13:59;101054.66;;;0.23;100.00
62791;BME280;48830;53.426;10.300;2023-03-12T05:16:24;101052.69;;;0.19;100.00
62791;BME280;48830;53.426;10.300;2023-03-12T05:18:50;101045.41;;;0.24;100.00
62791;BME280;48830;53.426;10.300;2023-03-12T05:21:18;101049.38;;;0.20;100.00
62791;BME280;48830;53.426;10.300;2023-03-12T05:23:46;101057.97;;;0.22;100.00
62791;BME280;48830;53.426;10.300;2023-03-12T05:28:44;101060.69;;;0.12;100.00
62791;BME280;48830;53.426;10.300;2023-03-12T05:31:11;101057.19;;;0.10;100.00
62791;BME280;48830;53.426;10.300;2023-03-12T05:33:38;101052.34;;;0.13;100.00
62791;BME280;48830;53.426;10.300;2023-03-12T05:36:03;101051.38;;;0.11;100.00
62791;BME280;48830;53.426;10.300;2023-03-12T05:38:29;101059.34;;;0.17;100.00
62791;BME280;48830;53.426;10.300;2023-03-12T05:40:56;101056.03;;;0.18;100.00
62791;BME280;48830;53.426;10.300;2023-03-12T05:43:24;101062.22;;;0.23;100.00
62791;BME280;48830;53.426;10.300;2023-03-12T05:45:51;101068.25;;;0.25;100.00
62791;BME280;48830;53.426;10.300;2023-03-12T05:48:17;101068.25;;;0.25;100.00
62791;BME280;48830;53.426;10.300;2023-03-12T05:50:43;101069.47;;;0.32;100.00
62791;BME280;48830;53.426;10.300;2023-03-12T05:53:09;101070.47;;;0.34;100.00
62791;BME280;48830;53.426;10.300;2023-03-12T05:55:36;101064.03;;;0.39;100.00
62791;BME280;48830;53.426;10.300;2023-03-12T05:58:03;101055.75;;;0.42;100.00
62791;BME280;48830;53.426;10.300;2023-03-12T06:00:30;101061.16;;;0.48;100.00
62791;BME280;48830;53.426;10.300;2023-03-12T06:02:57;101056.09;;;0.48;100.00
62791;BME280;48830;53.426;10.300;2023-03-12T06:05:22;101053.84;;;0.52;100.00
62791;BME280;48830;53.426;10.300;2023-03-12T06:07:48;101054.06;;;0.56;100.00
62791;BME280;48830;53.426;10.300;2023-03-12T06:10:13;101056.75;;;0.59;100.00
62791;BME280;48830;53.426;10.300;2023-03-12T06:12:39;101055.09;;;0.59;100.00
62791;BME280;48830;53.426;10.300;2023-03-12T06:15:05;101050.94;;;0.60;100.00
62791;BME280;48830;53.426;10.300;2023-03-12T06:17:31;101058.09;;;0.67;100.00
62791;BME280;48830;53.426;10.300;2023-03-12T06:19:57;101047.25;;;0.69;100.00
62791;BME280;48830;53.426;10.300;2023-03-12T06:22:23;101046.13;;;0.64;100.00
62791;BME280;48830;53.426;10.300;2023-03-12T06:24:49;101045.72;;;0.71;100.00
62791;BME280;48830;53.426;10.300;2023-03-12T06:27:15;101046.84;;;0.76;100.00
62791;BME280;48830;53.426;10.300;2023-03-12T06:29:41;101041.00;;;0.77;100.00
62791;BME280;48830;53.426;10.300;2023-03-12T06:32:07;101047.66;;;0.75;100.00
62791;BME280;48830;53.426;10.300;2023-03-12T06:34:32;101040.13;;;0.77;100.00
62791;BME280;48830;53.426;10.300;2023-03-12T06:36:58;101046.00;;;0.76;100.00
62791;BME280;48830;53.426;10.300;2023-03-12T06:39:24;101038.41;;;0.76;100.00
62791;BME280;48830;53.426;10.300;2023-03-12T06:41:49;101036.50;;;0.87;100.00
62791;BME280;48830;53.426;10.300;2023-03-12T06:44:15;101031.06;;;0.81;100.00
62791;BME280;48830;53.426;10.300;2023-03-12T06:46:41;101033.69;;;0.82;100.00
62791;BME280;48830;53.426;10.300;2023-03-12T06:49:08;101026.53;;;0.90;100.00
62791;BME280;48830;53.426;10.300;2023-03-12T06:51:34;101027.41;;;0.90;100.00
62791;BME280;48830;53.426;10.300;2023-03-12T06:53:59;101026.72;;;0.93;100.00
62791;BME280;48830;53.426;10.300;2023-03-12T06:56:27;101033.97;;;0.87;100.00
62791;BME280;48830;53.426;10.300;2023-03-12T06:58:52;101024.97;;;0.92;100.00
62791;BME280;48830;53.426;10.300;2023-03-12T07:01:18;101026.47;;;1.03;100.00
62791;BME280;48830;53.426;10.300;2023-03-12T07:03:43;101027.59;;;1.08;100.00
62791;BME280;48830;53.426;10.300;2023-03-12T07:06:17;101022.03;;;1.14;100.00
62791;BME280;48830;53.426;10.300;2023-03-12T07:08:43;101029.50;;;1.27;100.00
62791;BME280;48830;53.426;10.300;2023-03-12T07:11:09;101030.91;;;1.22;100.00
62791;BME280;48830;53.426;10.300;2023-03-12T07:13:36;101028.28;;;1.20;100.00
62791;BME280;48830;53.426;10.300;2023-03-12T07:16:02;101025.16;;;1.24;100.00
62791;BME280;48830;53.426;10.300;2023-03-12T07:18:27;101027.84;;;1.42;100.00
62791;BME280;48830;53.426;10.300;2023-03-12T07:20:53;101037.16;;;1.58;100.00
62791;BME280;48830;53.426;10.300;2023-03-12T07:23:19;101037.81;;;1.70;100.00
62791;BME280;48830;53.426;10.300;2023-03-12T07:25:45;101034.50;;;1.71;100.00
62791;BME280;48830;53.426;10.300;2023-03-12T07:28:12;101029.25;;;1.83;100.00
62791;BME280;48830;53.426;10.300;2023-03-12T07:30:39;101036.75;;;1.81;100.00
62791;BME280;48830;53.426;10.300;2023-03-12T07:33:07;101028.31;;;1.66;100.00
62791;BME280;48830;53.426;10.300;2023-03-12T07:35:33;101019.97;;;1.83;100.00
62791;BME280;48830;53.426;10.300;2023-03-12T07:37:59;101029.72;;;1.92;100.00
62791;BME280;48830;53.426;10.300;2023-03-12T07:40:25;101020.41;;;2.07;100.00
62791;BME280;48830;53.426;10.300;2023-03-12T07:42:50;101020.34;;;2.22;100.00
62791;BME280;48830;53.426;10.300;2023-03-12T07:45:17;101020.91;;;2.17;100.00
62791;BME280;48830;53.426;10.300;2023-03-12T07:47:42;101012.88;;;2.42;100.00
62791;BME280;48830;53.426;10.300;2023-03-12T07:50:09;101028.44;;;2.48;100.00
62791;BME280;48830;53.426;10.300;2023-03-12T07:52:34;101020.34;;;2.39;100.00
62791;BME280;48830;53.426;10.300;2023-03-12T07:55:00;101024.56;;;2.54;100.00
62791;BME280;48830;53.426;10.300;2023-03-12T07:57:25;101028.41;;;2.80;100.00
62791;BME280;48830;53.426;10.300;2023-03-12T07:59:51;101022.06;;;2.72;100.00
62791;BME280;48830;53.426;10.300;2023-03-12T08:02:16;101018.47;;;2.85;100.00
62791;BME280;48830;53.426;10.300;2023-03-12T08:04:42;101028.44;;;2.98;100.00
62791;BME280;48830;53.426;10.300;2023-03-12T08:07:07;101023.69;;;3.22;100.00
62791;BME280;48830;53.426;10.300;2023-03-12T08:09:33;101025.34;;;3.04;100.00
62791;BME280;48830;53.426;10.300;2023-03-12T08:11:59;101024.13;;;3.13;100.00
62791;BME280;48830;53.426;10.300;2023-03-12T08:14:25;101020.72;;;3.49;100.00
62791;BME280;48830;53.426;10.300;2023-03-12T08:16:50;101024.88;;;3.47;100.00
62791;BME280;48830;53.426;10.300;2023-03-12T08:19:16;101024.59;;;3.58;100.00
62791;BME280;48830;53.426;10.300;2023-03-12T08:21:41;101020.53;;;3.62;100.00
62791;BME280;48830;53.426;10.300;2023-03-12T08:24:07;101025.00;;;3.85;100.00
62791;BME280;48830;53.426;10.300;2023-03-12T08:26:32;101020.44;;;3.78;100.00
62791;BME280;48830;53.426;10.300;2023-03-12T08:28:58;101022.50;;;4.05;100.00
62791;BME280;48830;53.426;10.300;2023-03-12T08:31:26;101025.06;;;4.43;100.00
62791;BME280;48830;53.426;10.300;2023-03-12T08:33:52;101012.31;;;4.24;100.00
62791;BME280;48830;53.426;10.300;2023-03-12T08:36:17;101017.56;;;4.27;100.00
62791;BME280;48830;53.426;10.300;2023-03-12T08:38:43;101022.22;;;3.99;100.00
62791;BME280;48830;53.426;10.300;2023-03-12T08:41:09;101015.09;;;3.91;100.00
62791;BME280;48830;53.426;10.300;2023-03-12T08:43:35;101012.53;;;3.72;100.00
62791;BME280;48830;53.426;10.300;2023-03-12T08:46:02;101010.91;;;3.74;100.00
62791;BME280;48830;53.426;10.300;2023-03-12T08:48:29;101005.41;;;3.47;100.00
62791;BME280;48830;53.426;10.300;2023-03-12T08:50:56;101009.97;;;3.54;100.00
62791;BME280;48830;53.426;10.300;2023-03-12T08:53:22;101005.28;;;3.62;100.00
62791;BME280;48830;53.426;10.300;2023-03-12T08:55:47;101001.50;;;3.72;100.00
62791;BME280;48830;53.426;10.300;2023-03-12T08:58:13;101003.03;;;4.05;100.00
62791;BME280;48830;53.426;10.300;2023-03-12T09:00:38;101013.78;;;4.00;100.00
62791;BME280;48830;53.426;10.300;2023-03-12T09:03:04;101002.47;;;3.93;100.00
62791;BME280;48830;53.426;10.300;2023-03-12T09:05:29;101006.03;;;4.16;100.00
62791;BME280;48830;53.426;10.300;2023-03-12T09:07:56;101005.88;;;4.13;100.00
62791;BME280;48830;53.426;10.300;2023-03-12T09:10:22;100986.47;;;4.34;100.00
62791;BME280;48830;53.426;10.300;2023-03-12T09:12:47;100989.44;;;4.43;100.00
62791;BME280;48830;53.426;10.300;2023-03-12T09:15:13;100993.00;;;4.68;100.00
62791;BME280;48830;53.426;10.300;2023-03-12T09:17:39;100995.38;;;4.84;100.00
62791;BME280;48830;53.426;10.300;2023-03-12T09:20:06;100997.34;;;4.90;100.00
62791;BME280;48830;53.426;10.300;2023-03-12T09:22:33;100992.84;;;4.84;100.00
62791;BME280;48830;53.426;10.300;2023-03-12T09:25:05;100984.34;;;4.63;100.00
62791;BME280;48830;53.426;10.300;2023-03-12T09:27:42;100976.72;;;4.43;100.00
62791;BME280;48830;53.426;10.300;2023-03-12T09:30:10;100977.84;;;4.50;100.00
62791;BME280;48830;53.426;10.300;2023-03-12T09:32:36;100976.81;;;4.46;99.98
62791;BME280;48830;53.426;10.300;2023-03-12T09:35:02;100976.81;;;4.46;100.00
62791;BME280;48830;53.426;10.300;2023-03-12T09:37:28;100962.00;;;4.36;100.00
62791;BME280;48830;53.426;10.300;2023-03-12T09:39:53;100944.19;;;4.57;100.00
62791;BME280;48830;53.426;10.300;2023-03-12T09:42:23;100952.91;;;4.83;100.00
62791;BME280;48830;53.426;10.300;2023-03-12T09:44:51;100958.19;;;5.09;97.07
62791;BME280;48830;53.426;10.300;2023-03-12T09:47:34;100959.31;;;4.94;94.97
62791;BME280;48830;53.426;10.300;2023-03-12T09:50:40;100956.91;;;4.97;94.42
62791;BME280;48830;53.426;10.300;2023-03-12T09:55:47;100936.03;;;4.64;94.40
62791;BME280;48830;53.426;10.300;2023-03-12T10:00:46;100918.09;;;5.25;92.93
62791;BME280;48830;53.426;10.300;2023-03-12T10:11:47;100893.50;;;6.44;78.57
62791;BME280;48830;53.426;10.300;2023-03-12T10:14:21;100883.38;;;6.46;78.89
62791;BME280;48830;53.426;10.300;2023-03-12T10:19:45;100862.22;;;7.04;75.22
62791;BME280;48830;53.426;10.300;2023-03-12T10:22:24;100854.91;;;7.75;69.91
62791;BME280;48830;53.426;10.300;2023-03-12T10:25:07;100842.63;;;8.25;67.95
62791;BME280;48830;53.426;10.300;2023-03-12T10:27:39;100834.97;;;8.26;67.36
62791;BME280;48830;53.426;10.300;2023-03-12T10:30:17;100834.34;;;7.70;68.01
62791;BME280;48830;53.426;10.300;2023-03-12T10:32:58;100812.78;;;7.62;65.03
62791;BME280;48830;53.426;10.300;2023-03-12T10:35:27;100811.81;;;7.90;63.94
62791;BME280;48830;53.426;10.300;2023-03-12T10:38:02;100805.91;;;7.91;63.16
62791;BME280;48830;53.426;10.300;2023-03-12T10:40:35;100787.81;;;8.51;60.33
62791;BME280;48830;53.426;10.300;2023-03-12T10:43:02;100805.88;;;8.95;60.53
62791;BME280;48830;53.426;10.300;2023-03-12T10:48:21;100782.63;;;8.16;61.98
62791;BME280;48830;53.426;10.300;2023-03-12T10:51:19;100791.53;;;7.65;63.92
62791;BME280;48830;53.426;10.300;2023-03-12T10:53:44;100784.97;;;7.13;64.44
62791;BME280;48830;53.426;10.300;2023-03-12T10:56:14;100791.34;;;6.98;66.86
62791;BME280;48830;53.426;10.300;2023-03-12T10:58:45;100796.56;;;6.73;65.71
62791;BME280;48830;53.426;10.300;2023-03-12T11:01:15;100786.59;;;6.82;64.57
62791;BME280;48830;53.426;10.300;2023-03-12T11:03:43;100776.22;;;6.49;64.56
62791;BME280;48830;53.426;10.300;2023-03-12T11:06:28;100772.91;;;6.80;65.63
62791;BME280;48830;53.426;10.300;2023-03-12T11:11:33;100769.63;;;6.84;65.83
62791;BME280;48830;53.426;10.300;2023-03-12T11:14:26;100758.66;;;6.60;65.42
62791;BME280;48830;53.426;10.300;2023-03-12T11:16:53;100755.88;;;6.25;65.81
62791;BME280;48830;53.426;10.300;2023-03-12T11:19:29;100754.91;;;6.21;66.63
62791;BME280;48830;53.426;10.300;2023-03-12T11:22:02;100757.53;;;5.97;67.23
62791;BME280;48830;53.426;10.300;2023-03-12T11:24:28;100746.38;;;6.21;65.87
62791;BME280;48830;53.426;10.300;2023-03-12T11:27:20;100748.06;;;6.20;67.37
62791;BME280;48830;53.426;10.300;2023-03-12T11:29:49;100746.28;;;6.18;68.03
62791;BME280;48830;53.426;10.300;2023-03-12T11:32:23;100756.59;;;5.95;68.29
62791;BME280;48830;53.426;10.300;2023-03-12T11:34:50;100764.41;;;6.00;69.36
62791;BME280;48830;53.426;10.300;2023-03-12T11:43:11;100775.22;;;5.69;68.68
62791;BME280;48830;53.426;10.300;2023-03-12T11:48:48;100759.16;;;5.71;71.03
62791;BME280;48830;53.426;10.300;2023-03-12T11:51:39;100751.41;;;5.92;71.21
62791;BME280;48830;53.426;10.300;2023-03-12T11:54:29;100738.50;;;5.89;71.24
62791;BME280;48830;53.426;10.300;2023-03-12T11:57:52;100741.03;;;5.64;71.25
62791;BME280;48830;53.426;10.300;2023-03-12T12:01:23;100748.69;;;5.64;72.14
62791;BME280;48830;53.426;10.300;2023-03-12T12:03:43;100744.00;;;5.50;73.08
62791;BME280;48830;53.426;10.300;2023-03-12T12:11:40;100739.97;;;5.57;74.05
62791;BME280;48830;53.426;10.300;2023-03-12T12:27:43;100707.78;;;5.86;73.18
62791;BME280;48830;53.426;10.300;2023-03-12T12:30:34;100704.09;;;5.76;73.85
62791;BME280;48830;53.426;10.300;2023-03-12T12:35:35;100700.84;;;6.08;76.45
62791;BME280;48830;53.426;10.300;2023-03-12T12:38:09;100711.13;;;6.09;76.21
62791;BME280;48830;53.426;10.300;2023-03-12T12:43:26;100713.34;;;5.98;74.20
62791;BME280;48830;53.426;10.300;2023-03-12T12:45:55;100715.22;;;6.04;75.02
62791;BME280;48830;53.426;10.300;2023-03-12T12:48:24;100717.28;;;5.90;73.27
62791;BME280;48830;53.426;10.300;2023-03-12T12:50:52;100701.66;;;5.81;74.71
62791;BME280;48830;53.426;10.300;2023-03-12T12:53:25;100688.13;;;5.82;74.37
62791;BME280;48830;53.426;10.300;2023-03-12T12:56:17;100687.56;;;6.18;76.55
62791;BME280;48830;53.426;10.300;2023-03-12T13:01:34;100691.41;;;5.79;75.45
62791;BME280;48830;53.426;10.300;2023-03-12T13:04:08;100695.13;;;5.89;77.79
62791;BME280;48830;53.426;10.300;2023-03-12T13:09:48;100665.63;;;5.45;81.76
62791;BME280;48830;53.426;10.300;2023-03-12T13:12:29;100659.16;;;5.55;83.57
62791;BME280;48830;53.426;10.300;2023-03-12T13:14:56;100661.84;;;5.34;85.45
62791;BME280;48830;53.426;10.300;2023-03-12T13:20:16;100665.81;;;5.51;88.36
62791;BME280;48830;53.426;10.300;2023-03-12T13:28:28;100655.03;;;5.09;96.57
62791;BME280;48830;53.426;10.300;2023-03-12T13:30:58;100654.41;;;5.16;98.46
62791;BME280;48830;53.426;10.300;2023-03-12T13:34:07;100649.47;;;5.20;98.99
62791;BME280;48830;53.426;10.300;2023-03-12T13:36:52;100640.59;;;5.09;100.00
62791;BME280;48830;53.426;10.300;2023-03-12T13:39:34;100635.53;;;5.11;100.00
62791;BME280;48830;53.426;10.300;2023-03-12T13:42:26;100624.28;;;5.28;100.00
62791;BME280;48830;53.426;10.300;2023-03-12T13:44:47;100625.34;;;5.35;100.00
62791;BME280;48830;53.426;10.300;2023-03-12T13:47:22;100627.84;;;5.09;100.00
62791;BME280;48830;53.426;10.300;2023-03-12T13:52:46;100611.88;;;5.13;100.00
62791;BME280;48830;53.426;10.300;2023-03-12T13:57:43;100613.50;;;4.87;100.00
62791;BME280;48830;53.426;10.300;2023-03-12T14:03:00;100615.34;;;4.67;100.00
62791;BME280;48830;53.426;10.300;2023-03-12T14:05:30;100616.75;;;4.59;100.00
62791;BME280;48830;53.426;10.300;2023-03-12T14:10:59;100603.97;;;4.13;100.00
62791;BME280;48830;53.426;10.300;2023-03-12T14:16:29;100616.16;;;4.20;100.00
62791;BME280;48830;53.426;10.300;2023-03-12T14:18:59;100603.97;;;4.13;100.00
62791;BME280;48830;53.426;10.300;2023-03-12T14:21:32;100608.84;;;4.07;100.00
62791;BME280;48830;53.426;10.300;2023-03-12T14:23:59;100605.47;;;4.08;100.00
62791;BME280;48830;53.426;10.300;2023-03-12T14:26:34;100593.69;;;4.10;100.00
62791;BME280;48830;53.426;10.300;2023-03-12T14:29:07;100581.91;;;4.12;100.00